createdAt,value
2018-09-12T00:05:05.429Z,96486.00
2018-09-12T00:10:34.669Z,96477.00
2018-09-12T00:16:04.051Z,96465.00
2018-09-12T00:21:33.439Z,96463.00
2018-09-12T00:27:02.636Z,96460.00
2018-09-12T00:32:32.743Z,96453.00
2018-09-12T00:38:02.014Z,96442.00
2018-09-12T00:43:31.292Z,96455.00
2018-09-12T00:49:00.482Z,96449.00
2018-09-12T00:54:30.363Z,96445.00
2018-09-12T01:00:00.644Z,96445.00
2018-09-12T01:05:29.896Z,96441.00
2018-09-12T01:10:59.106Z,96446.00
2018-09-12T01:16:28.291Z,96449.00
2018-09-12T01:21:57.529Z,96446.00
2018-09-12T01:27:27.041Z,96436.00
2018-09-12T01:32:57.353Z,96436.00
2018-09-12T01:38:26.540Z,96436.00
2018-09-12T01:43:55.759Z,96430.00
2018-09-12T01:49:24.966Z,96418.00
2018-09-12T01:54:54.164Z,96420.00
2018-09-12T02:00:53.965Z,96422.00
2018-09-12T02:06:23.251Z,96415.00
2018-09-12T02:11:52.506Z,96415.00
2018-09-12T02:17:21.775Z,96411.00
2018-09-12T02:22:51.617Z,96398.00
2018-09-12T02:28:20.828Z,96392.00
2018-09-12T02:33:50.085Z,96387.00
2018-09-12T02:39:19.279Z,96384.00
2018-09-12T02:44:48.549Z,96368.00
2018-09-12T02:50:17.832Z,96362.00
2018-09-12T02:55:47.062Z,96363.00
2018-09-12T03:01:16.327Z,96363.00
2018-09-12T03:06:45.552Z,96353.00
2018-09-12T03:12:15.164Z,96346.00
2018-09-12T03:17:44.566Z,96341.00
2018-09-12T03:23:13.831Z,96332.00
2018-09-12T03:28:43.124Z,96328.00
2018-09-12T03:34:12.517Z,96318.00
2018-09-12T03:39:41.787Z,96317.00
2018-09-12T03:45:11.196Z,96319.00
2018-09-12T03:50:40.720Z,96306.00
2018-09-12T03:56:10.112Z,96309.00
2018-09-12T04:01:39.704Z,96304.00
2018-09-12T04:07:08.988Z,96303.00
2018-09-12T04:12:38.373Z,96301.00
2018-09-12T04:18:08.272Z,96296.00
2018-09-12T04:23:37.646Z,96289.00
2018-09-12T04:29:06.989Z,96301.00
2018-09-12T04:34:36.438Z,96309.00
2018-09-12T04:40:06.973Z,96308.00
2018-09-12T04:45:36.585Z,96308.00
2018-09-12T04:51:05.964Z,96299.00
2018-09-12T04:56:35.239Z,96300.00
2018-09-12T05:02:04.491Z,96287.00
2018-09-12T05:07:33.748Z,96287.00
2018-09-12T05:13:02.971Z,96282.00
2018-09-12T05:18:32.196Z,96296.00
2018-09-12T05:24:01.500Z,96293.00
2018-09-12T05:29:30.736Z,96289.00
2018-09-12T05:34:59.935Z,96291.00
2018-09-12T05:40:29.242Z,96296.00
2018-09-12T05:45:58.447Z,96303.00
2018-09-12T05:51:27.696Z,96305.00
2018-09-12T05:56:56.927Z,96296.00
2018-09-12T06:02:26.131Z,96298.00
2018-09-12T06:07:56.476Z,96301.00
2018-09-12T06:13:25.700Z,96300.00
2018-09-12T06:18:55.098Z,96301.00
2018-09-12T06:24:24.349Z,96299.00
2018-09-12T06:29:53.608Z,96298.00
2018-09-12T06:35:22.771Z,96303.00
2018-09-12T06:40:53.055Z,96303.00
2018-09-12T06:46:22.329Z,96305.00
2018-09-12T06:51:51.552Z,96297.00
2018-09-12T06:57:20.763Z,96300.00
2018-09-12T07:02:50.151Z,96306.00
2018-09-12T07:08:19.367Z,96293.00
2018-09-12T07:13:49.732Z,96295.00
2018-09-12T07:19:18.967Z,96299.00
2018-09-12T07:24:48.283Z,96305.00
2018-09-12T07:30:17.560Z,96308.00
2018-09-12T07:35:46.763Z,96313.00
2018-09-12T07:41:16.605Z,96313.00
2018-09-12T07:46:45.945Z,96318.00
2018-09-12T07:52:16.091Z,96321.00
2018-09-12T07:57:45.527Z,96328.00
2018-09-12T08:03:14.835Z,96322.00
2018-09-12T08:08:44.148Z,96338.00
2018-09-12T08:14:13.504Z,96347.00
2018-09-12T08:19:42.858Z,96348.00
2018-09-12T08:25:12.300Z,96344.00
2018-09-12T08:30:41.783Z,96351.00
2018-09-12T08:36:11.220Z,96351.00
2018-09-12T08:41:40.632Z,96348.00
2018-09-12T08:47:10.048Z,96354.00
2018-09-12T08:52:39.693Z,96361.00
2018-09-12T08:58:09.137Z,96352.00
2018-09-12T09:03:38.632Z,96359.00
2018-09-12T09:09:11.228Z,96368.00
2018-09-12T09:14:40.651Z,96365.00
2018-09-12T09:20:09.999Z,96350.00
2018-09-12T09:25:39.328Z,96348.00
2018-09-12T09:31:08.818Z,96349.00
2018-09-12T09:36:38.179Z,96343.00
2018-09-12T09:42:07.660Z,96346.00
2018-09-12T09:47:37.057Z,96340.00
2018-09-12T09:53:06.373Z,96341.00
2018-09-12T09:58:35.716Z,96343.00
2018-09-12T10:04:10.145Z,96334.00
2018-09-12T10:09:39.512Z,96334.00
2018-09-12T10:15:08.999Z,96327.00
2018-09-12T10:20:38.439Z,96344.00
2018-09-12T10:26:07.739Z,96343.00
2018-09-12T10:31:37.041Z,96349.00
2018-09-12T10:37:06.455Z,96340.00
2018-09-12T10:42:36.869Z,96326.00
2018-09-12T10:48:06.397Z,96330.00
2018-09-12T10:53:35.684Z,96323.00
2018-09-12T10:59:04.994Z,96314.00
2018-09-12T11:04:34.317Z,96310.00
2018-09-12T11:10:03.520Z,96305.00
2018-09-12T11:15:32.788Z,96295.00
2018-09-12T11:21:02.005Z,96289.00
2018-09-12T11:26:31.429Z,96292.00
2018-09-12T11:32:00.623Z,96273.00
2018-09-12T11:37:29.964Z,96265.00
2018-09-12T11:42:59.180Z,96264.00
2018-09-12T11:48:28.409Z,96258.00
2018-09-12T11:53:57.721Z,96264.00
2018-09-12T11:59:26.956Z,96267.00
2018-09-12T12:04:56.245Z,96257.00
2018-09-12T12:10:25.448Z,96251.00
2018-09-12T12:15:54.688Z,96259.00
2018-09-12T12:21:23.934Z,96242.00
2018-09-12T12:26:53.188Z,96233.00
2018-09-12T12:32:22.415Z,96229.00
2018-09-12T12:37:52.079Z,96216.00
2018-09-12T12:43:21.291Z,96217.00
2018-09-12T12:48:50.638Z,96195.00
2018-09-12T12:54:19.851Z,96192.00
2018-09-12T12:59:49.095Z,96180.00
2018-09-12T13:05:18.325Z,96164.00
2018-09-12T13:10:47.640Z,96154.00
2018-09-12T13:16:17.012Z,96155.00
2018-09-12T13:21:46.387Z,96156.00
2018-09-12T13:27:15.619Z,96152.00
2018-09-12T13:32:44.864Z,96144.00
2018-09-12T13:38:14.043Z,96149.00
2018-09-12T13:43:43.336Z,96126.00
2018-09-12T13:49:12.649Z,96092.00
2018-09-12T13:54:41.909Z,96095.00
2018-09-12T14:00:11.285Z,96099.00
2018-09-12T14:05:40.650Z,96089.00
2018-09-12T14:11:09.955Z,96074.00
2018-09-12T14:16:39.282Z,96042.00
2018-09-12T14:22:09.005Z,96045.00
2018-09-12T14:27:38.315Z,96037.00
2018-09-12T14:33:07.938Z,96023.00
2018-09-12T14:38:37.254Z,96017.00
2018-09-12T14:44:06.676Z,96009.00
2018-09-12T14:49:36.053Z,96014.00
2018-09-12T14:55:05.384Z,96019.00
2018-09-12T15:00:34.730Z,96016.00
2018-09-12T15:06:03.993Z,96018.00
2018-09-12T15:11:33.265Z,96052.00
2018-09-12T15:17:02.510Z,96064.00
2018-09-12T15:22:35.628Z,96072.00
2018-09-12T15:28:09.087Z,96061.00
2018-09-12T15:33:38.718Z,96059.00
2018-09-12T15:39:10.596Z,96059.00
2018-09-12T15:44:40.216Z,96054.00
2018-09-12T15:50:10.070Z,96046.00
2018-09-12T15:55:41.653Z,96045.00
2018-09-12T16:01:14.861Z,96042.00
2018-09-12T16:06:44.506Z,96038.00
2018-09-12T16:12:13.994Z,96036.00
2018-09-12T16:17:43.839Z,96022.00
2018-09-12T16:23:14.844Z,96023.00
2018-09-12T16:28:44.311Z,96016.00
2018-09-12T16:34:14.211Z,96005.00
2018-09-12T16:39:43.556Z,95999.00
2018-09-12T16:45:13.142Z,96002.00
2018-09-12T16:50:42.881Z,96002.00
2018-09-12T16:56:13.512Z,96001.00
2018-09-12T17:01:42.906Z,95999.00
2018-09-12T17:07:12.514Z,95991.00
2018-09-12T17:12:41.964Z,96000.00
2018-09-12T17:18:11.570Z,96001.00
2018-09-12T17:23:41.186Z,95996.00
2018-09-12T17:29:12.328Z,95987.00
2018-09-12T17:34:42.057Z,95996.00
2018-09-12T17:40:11.608Z,95992.00
2018-09-12T17:45:41.153Z,95994.00
2018-09-12T17:51:10.826Z,95991.00
2018-09-12T17:56:41.385Z,95990.00
2018-09-12T18:02:11.001Z,95988.00
2018-09-12T18:07:40.699Z,95998.00
2018-09-12T18:13:12.112Z,96011.00
2018-09-12T18:18:41.705Z,96014.00
2018-09-12T18:24:11.170Z,96021.00
2018-09-12T18:29:40.747Z,96030.00
2018-09-12T18:35:10.242Z,96043.00
2018-09-12T18:40:39.673Z,96041.00
2018-09-12T18:46:09.229Z,96041.00
2018-09-12T18:51:39.072Z,96038.00
2018-09-12T18:57:08.487Z,96024.00
2018-09-12T19:02:37.900Z,96028.00
2018-09-12T19:08:07.394Z,96030.00
2018-09-12T19:13:37.068Z,96041.00
2018-09-12T19:19:06.393Z,96038.00
2018-09-12T19:24:35.869Z,96033.00
2018-09-12T19:30:05.209Z,96041.00
2018-09-12T19:35:34.480Z,96045.00
2018-09-12T19:41:08.386Z,96044.00
2018-09-12T19:46:38.033Z,96049.00
2018-09-12T19:52:07.824Z,96053.00
2018-09-12T19:57:37.572Z,96051.00
2018-09-12T20:03:07.607Z,96050.00
2018-09-12T20:08:37.772Z,96054.00
2018-09-12T20:14:08.154Z,96042.00
2018-09-12T20:19:38.273Z,96033.00
2018-09-12T20:25:07.758Z,96031.00
2018-09-12T20:30:37.181Z,96033.00
2018-09-12T20:36:07.518Z,96036.00
2018-09-12T20:41:37.325Z,96021.00
2018-09-12T20:47:06.946Z,96022.00
2018-09-12T20:52:36.410Z,96027.00
2018-09-12T20:58:05.791Z,96018.00
2018-09-12T21:03:35.908Z,96013.00
2018-09-12T21:09:09.351Z,96012.00
2018-09-12T21:14:39.091Z,96014.00
2018-09-12T21:20:08.608Z,96017.00
2018-09-12T21:25:38.333Z,96011.00
2018-09-12T21:31:08.087Z,96002.00
2018-09-12T21:36:37.625Z,95998.00
2018-09-12T21:42:06.944Z,96000.00
2018-09-12T21:47:36.378Z,96002.00
2018-09-12T21:53:05.621Z,95998.00
2018-09-12T21:58:34.917Z,95991.00
2018-09-12T22:04:04.123Z,95986.00
2018-09-12T22:09:33.343Z,95990.00
2018-09-12T22:15:02.597Z,95975.00
2018-09-12T22:20:31.894Z,95966.00
2018-09-12T22:26:01.130Z,95978.00
2018-09-12T22:31:30.347Z,95973.00
2018-09-12T22:36:59.677Z,95966.00
2018-09-12T22:42:28.971Z,95971.00
2018-09-12T22:47:58.172Z,95975.00
2018-09-12T22:53:27.480Z,95967.00
2018-09-12T22:58:56.704Z,95964.00
2018-09-12T23:04:25.935Z,95957.00
2018-09-12T23:09:55.183Z,95945.00
2018-09-12T23:15:24.432Z,95942.00
2018-09-12T23:20:53.700Z,95934.00
2018-09-12T23:26:22.928Z,95925.00
2018-09-12T23:31:52.120Z,95921.00
2018-09-12T23:37:21.295Z,95925.00
2018-09-12T23:42:50.551Z,95918.00
2018-09-12T23:48:19.755Z,95914.00
2018-09-12T23:53:49.053Z,95915.00
2018-09-12T23:59:18.361Z,95908.00
